Time,TemperatureF,DewpointF,PressureIn,WindDirection,WindDirectionDegrees,WindSpeedMPH,WindSpeedGustMPH,Humidity,HourlyPrecipIn,Conditions,Clouds,dailyrainin,SoftwareType,DateUTC
2013-10-03 00:13:00,60.0,59.0,30.09,SE,130,0.0,0.0,96,0.00,,,0.00,weatherlink.com 1.10,2013-10-03 04:13:00,
2013-10-03 00:28:00,60.1,59.0,30.09,SE,130,0.0,0.0,97,0.00,,,0.00,weatherlink.com 1.10,2013-10-03 04:28:00,
2013-10-03 00:43:00,59.7,59.0,30.09,SE,130,0.0,0.0,96,0.00,,,0.00,weatherlink.com 1.10,2013-10-03 04:43:00,
2013-10-03 00:58:00,59.4,59.0,30.09,SE,130,0.0,0.0,97,0.00,,,0.00,weatherlink.com 1.10,2013-10-03 04:58:00,
2013-10-03 01:13:00,59.1,58.0,30.09,SE,130,0.0,0.0,96,0.00,,,0.00,weatherlink.com 1.10,2013-10-03 05:13:00,
2013-10-03 01:28:00,59.1,58.0,30.09,SE,130,0.0,0.0,97,0.00,,,0.00,weatherlink.com 1.10,2013-10-03 05:28:00,
2013-10-03 01:43:00,59.2,58.0,30.08,SE,130,0.0,0.0,97,0.00,,,0.00,weatherlink.com 1.10,2013-10-03 05:43:00,
2013-10-03 01:58:00,59.3,59.0,30.08,SE,130,0.0,0.0,97,0.00,,,0.00,weatherlink.com 1.10,2013-10-03 05:58:00,
2013-10-03 02:13:00,59.0,58.0,30.08,SE,130,0.0,0.0,97,0.00,,,0.00,weatherlink.com 1.10,2013-10-03 06:13:00,
2013-10-03 02:28:00,59.5,59.0,30.08,SE,130,0.0,0.0,97,0.00,,,0.00,weatherlink.com 1.10,2013-10-03 06:28:00,
2013-10-03 02:43:00,59.2,58.0,30.07,SE,130,0.0,0.0,97,0.00,,,0.00,weatherlink.com 1.10,2013-10-03 06:43:00,
2013-10-03 02:58:00,58.9,58.0,30.07,SE,130,0.0,0.0,97,0.00,,,0.00,weatherlink.com 1.10,2013-10-03 06:58:00,
2013-10-03 03:13:00,59.0,58.0,30.07,SE,130,0.0,0.0,97,0.00,,,0.00,weatherlink.com 1.10,2013-10-03 07:13:00,
2013-10-03 03:28:00,58.4,58.0,30.07,SE,130,0.0,0.0,97,0.00,,,0.00,weatherlink.com 1.10,2013-10-03 07:28:00,
2013-10-03 03:43:00,58.3,58.0,30.06,SE,130,0.0,0.0,97,0.00,,,0.00,weatherlink.com 1.10,2013-10-03 07:43:00,
2013-10-03 03:58:00,58.3,58.0,30.06,SE,130,0.0,0.0,97,0.00,,,0.00,weatherlink.com 1.10,2013-10-03 07:58:00,
2013-10-03 04:13:00,58.2,57.0,30.06,SE,130,0.0,0.0,97,0.00,,,0.00,weatherlink.com 1.10,2013-10-03 08:13:00,
2013-10-03 04:28:00,58.2,57.0,30.06,SE,130,0.0,0.0,97,0.00,,,0.00,weatherlink.com 1.10,2013-10-03 08:28:00,
2013-10-03 04:43:00,58.0,57.0,30.06,SE,130,0.0,0.0,97,0.00,,,0.00,weatherlink.com 1.10,2013-10-03 08:43:00,
2013-10-03 04:58:00,58.4,58.0,30.06,SE,130,0.0,0.0,98,0.00,,,0.00,weatherlink.com 1.10,2013-10-03 08:58:00,
2013-10-03 05:13:00,57.9,57.0,30.06,SE,130,0.0,0.0,97,0.00,,,0.00,weatherlink.com 1.10,2013-10-03 09:13:00,
2013-10-03 05:28:00,57.9,57.0,30.06,SE,130,0.0,0.0,97,0.00,,,0.00,weatherlink.com 1.10,2013-10-03 09:28:00,
2013-10-03 05:43:00,57.5,57.0,30.06,SE,130,0.0,0.0,97,0.00,,,0.00,weatherlink.com 1.10,2013-10-03 09:43:00,
2013-10-03 05:58:00,57.3,57.0,30.07,SE,130,0.0,0.0,97,0.00,,,0.00,weatherlink.com 1.10,2013-10-03 09:58:00,
2013-10-03 06:13:00,57.5,57.0,30.07,SE,130,0.0,0.0,97,0.00,,,0.00,weatherlink.com 1.10,2013-10-03 10:13:00,
2013-10-03 06:28:00,57.2,56.0,30.08,SE,130,0.0,0.0,97,0.00,,,0.00,weatherlink.com 1.10,2013-10-03 10:28:00,
2013-10-03 06:43:00,57.0,56.0,30.08,SE,130,0.0,0.0,97,0.00,,,0.00,weatherlink.com 1.10,2013-10-03 10:43:00,
2013-10-03 06:58:00,57.1,57.0,30.08,SE,130,0.0,0.0,98,0.00,,,0.00,weatherlink.com 1.10,2013-10-03 10:58:00,
2013-10-03 07:13:00,56.8,56.0,30.08,SE,130,0.0,0.0,97,0.00,,,0.00,weatherlink.com 1.10,2013-10-03 11:13:00,
2013-10-03 07:28:00,56.3,56.0,30.08,SE,130,0.0,0.0,97,0.00,,,0.00,weatherlink.com 1.10,2013-10-03 11:28:00,
2013-10-03 07:43:00,56.2,55.0,30.09,SE,130,0.0,0.0,97,0.00,,,0.00,weatherlink.com 1.10,2013-10-03 11:43:00,
2013-10-03 07:58:00,56.7,56.0,30.09,SE,130,0.0,0.0,98,0.00,,,0.00,weatherlink.com 1.10,2013-10-03 11:58:00,
2013-10-03 08:13:00,58.6,58.0,30.09,SE,130,0.0,0.0,98,0.00,,,0.00,weatherlink.com 1.10,2013-10-03 12:13:00,
2013-10-03 08:28:00,60.3,60.0,30.09,SE,130,0.0,0.0,98,0.00,,,0.00,weatherlink.com 1.10,2013-10-03 12:28:00,
2013-10-03 08:43:00,61.7,61.0,30.09,SE,130,0.0,0.0,98,0.00,,,0.00,weatherlink.com 1.10,2013-10-03 12:43:00,
2013-10-03 08:58:00,63.3,63.0,30.09,SE,130,0.0,0.0,98,0.00,,,0.00,weatherlink.com 1.10,2013-10-03 12:58:00,
2013-10-03 09:13:00,65.2,64.0,30.10,SE,130,0.0,0.0,96,0.00,,,0.00,weatherlink.com 1.10,2013-10-03 13:13:00,
2013-10-03 09:28:00,66.7,65.0,30.11,ESE,111,0.0,0.0,93,0.00,,,0.00,weatherlink.com 1.10,2013-10-03 13:28:00,
2013-10-03 09:43:00,68.5,65.0,30.10,WNW,300,0.0,0.0,87,0.00,,,0.00,weatherlink.com 1.10,2013-10-03 13:43:00,
2013-10-03 09:58:00,70.3,65.0,30.10,North,5,0.0,0.0,82,0.00,,,0.00,weatherlink.com 1.10,2013-10-03 13:58:00,
2013-10-03 10:13:00,71.1,64.0,30.10,NNE,15,0.0,0.0,79,0.00,,,0.00,weatherlink.com 1.10,2013-10-03 14:13:00,
2013-10-03 10:28:00,71.6,64.0,30.10,NNW,336,0.0,0.0,78,0.00,,,0.00,weatherlink.com 1.10,2013-10-03 14:28:00,
2013-10-03 10:43:00,72.3,64.0,30.10,WSW,248,0.0,0.0,76,0.00,,,0.00,weatherlink.com 1.10,2013-10-03 14:43:00,
2013-10-03 10:58:00,73.1,64.0,30.10,SSW,193,0.0,0.0,74,0.00,,,0.00,weatherlink.com 1.10,2013-10-03 14:58:00,
2013-10-03 11:13:00,73.7,65.0,30.10,WSW,238,0.0,0.0,74,0.00,,,0.00,weatherlink.com 1.10,2013-10-03 15:13:00,
2013-10-03 11:28:00,74.9,66.0,30.10,South,188,0.0,0.0,73,0.00,,,0.00,weatherlink.com 1.10,2013-10-03 15:28:00,
2013-10-03 11:43:00,75.6,64.0,30.09,West,262,0.0,0.0,67,0.00,,,0.00,weatherlink.com 1.10,2013-10-03 15:43:00,
2013-10-03 11:59:00,76.8,64.0,30.09,SW,221,0.0,0.0,64,0.00,,,0.00,weatherlink.com 1.10,2013-10-03 15:59:00,
2013-10-03 12:14:00,77.1,64.0,30.09,WSW,251,0.0,0.0,65,0.00,,,0.00,weatherlink.com 1.10,2013-10-03 16:14:00,
2013-10-03 12:29:00,77.9,66.0,30.08,WSW,241,0.0,0.0,67,0.00,,,0.00,weatherlink.com 1.10,2013-10-03 16:29:00,
2013-10-03 12:44:00,77.9,65.0,30.08,WSW,240,0.0,0.0,64,0.00,,,0.00,weatherlink.com 1.10,2013-10-03 16:44:00,
2013-10-03 12:59:00,79.1,65.0,30.08,West,281,0.0,0.0,62,0.00,,,0.00,weatherlink.com 1.10,2013-10-03 16:59:00,
2013-10-03 13:14:00,78.9,64.0,30.07,WSW,244,0.0,0.0,60,0.00,,,0.00,weatherlink.com 1.10,2013-10-03 17:14:00,
2013-10-03 13:29:00,79.8,63.0,30.07,SSW,203,0.0,0.0,57,0.00,,,0.00,weatherlink.com 1.10,2013-10-03 17:29:00,
2013-10-03 13:44:00,79.5,62.0,30.06,SW,219,0.0,0.0,55,0.00,,,0.00,weatherlink.com 1.10,2013-10-03 17:44:00,
2013-10-03 13:59:00,79.4,63.0,30.06,SW,228,0.0,0.0,57,0.00,,,0.00,weatherlink.com 1.10,2013-10-03 17:59:00,
2013-10-03 14:14:00,80.4,62.0,30.05,SW,223,0.0,0.0,53,0.00,,,0.00,weatherlink.com 1.10,2013-10-03 18:14:00,
2013-10-03 14:29:00,80.3,63.0,30.05,SW,223,0.0,0.0,56,0.00,,,0.00,weatherlink.com 1.10,2013-10-03 18:29:00,
2013-10-03 14:44:00,81.4,63.0,30.05,SW,221,0.0,0.0,54,0.00,,,0.00,weatherlink.com 1.10,2013-10-03 18:44:00,
2013-10-03 14:59:00,81.0,62.0,30.04,SW,233,0.0,0.0,52,0.00,,,0.00,weatherlink.com 1.10,2013-10-03 18:59:00,
2013-10-03 15:14:00,81.2,63.0,30.04,SSW,207,0.0,0.0,54,0.00,,,0.00,weatherlink.com 1.10,2013-10-03 19:14:00,
2013-10-03 15:29:00,82.0,62.0,30.03,WSW,255,0.0,0.0,50,0.00,,,0.00,weatherlink.com 1.10,2013-10-03 19:29:00,
2013-10-03 15:44:00,81.3,59.0,30.03,SW,230,0.0,0.0,47,0.00,,,0.00,weatherlink.com 1.10,2013-10-03 19:44:00,
2013-10-03 15:59:00,81.4,62.0,30.03,South,189,0.0,0.0,52,0.00,,,0.00,weatherlink.com 1.10,2013-10-03 19:59:00,
2013-10-03 16:14:00,80.7,63.0,30.03,SSE,147,0.0,0.0,55,0.00,,,0.00,weatherlink.com 1.10,2013-10-03 20:14:00,
2013-10-03 16:29:00,80.6,62.0,30.03,WSW,240,0.0,0.0,54,0.00,,,0.00,weatherlink.com 1.10,2013-10-03 20:29:00,
2013-10-03 16:44:00,79.6,62.0,30.03,South,181,0.0,0.0,55,0.00,,,0.00,weatherlink.com 1.10,2013-10-03 20:44:00,
2013-10-03 16:59:00,80.0,62.0,30.02,SW,219,0.0,0.0,54,0.00,,,0.00,weatherlink.com 1.10,2013-10-03 20:59:00,
2013-10-03 17:14:00,78.9,62.0,30.03,SW,220,0.0,0.0,57,0.00,,,0.00,weatherlink.com 1.10,2013-10-03 21:14:00,
2013-10-03 17:29:00,79.9,63.0,30.03,SSE,165,0.0,0.0,56,0.00,,,0.00,weatherlink.com 1.10,2013-10-03 21:29:00,
2013-10-03 17:44:00,80.2,63.0,30.03,SSW,197,0.0,0.0,55,0.00,,,0.00,weatherlink.com 1.10,2013-10-03 21:44:00,
2013-10-03 17:59:00,79.8,64.0,30.03,SE,132,0.0,0.0,59,0.00,,,0.00,weatherlink.com 1.10,2013-10-03 21:59:00,
2013-10-03 18:14:00,79.4,64.0,30.03,SSE,163,0.0,0.0,59,0.00,,,0.00,weatherlink.com 1.10,2013-10-03 22:14:00,
2013-10-03 18:29:00,78.3,64.0,30.03,South,191,0.0,0.0,62,0.00,,,0.00,weatherlink.com 1.10,2013-10-03 22:29:00,
2013-10-03 18:44:00,77.0,65.0,30.04,South,191,0.0,0.0,67,0.00,,,0.00,weatherlink.com 1.10,2013-10-03 22:44:00,
2013-10-03 18:59:00,74.6,65.0,30.04,South,191,0.0,0.0,73,0.00,,,0.00,weatherlink.com 1.10,2013-10-03 22:59:00,
2013-10-03 19:14:00,72.1,65.0,30.04,South,191,0.0,0.0,78,0.00,,,0.00,weatherlink.com 1.10,2013-10-03 23:14:00,
2013-10-03 19:29:00,70.1,64.0,30.04,South,191,0.0,0.0,82,0.00,,,0.00,weatherlink.com 1.10,2013-10-03 23:29:00,
2013-10-03 19:44:00,68.5,64.0,30.04,South,191,0.0,0.0,85,0.00,,,0.00,weatherlink.com 1.10,2013-10-03 23:44:00,
2013-10-03 19:59:00,67.1,63.0,30.04,South,191,0.0,0.0,87,0.00,,,0.00,weatherlink.com 1.10,2013-10-03 23:59:00,
2013-10-03 20:14:00,65.9,63.0,30.05,South,191,0.0,0.0,89,0.00,,,0.00,weatherlink.com 1.10,2013-10-04 00:14:00,
2013-10-03 20:30:00,64.9,62.0,30.05,South,191,0.0,0.0,90,0.00,,,0.00,weatherlink.com 1.10,2013-10-04 00:30:00,
2013-10-03 20:45:00,64.3,62.0,30.05,South,191,0.0,0.0,91,0.00,,,0.00,weatherlink.com 1.10,2013-10-04 00:45:00,
2013-10-03 21:00:00,63.9,62.0,30.06,South,191,0.0,0.0,93,0.00,,,0.00,weatherlink.com 1.10,2013-10-04 01:00:00,
2013-10-03 21:15:00,63.4,61.0,30.06,South,191,0.0,0.0,92,0.00,,,0.00,weatherlink.com 1.10,2013-10-04 01:15:00,
2013-10-03 21:30:00,62.9,61.0,30.06,South,191,0.0,0.0,94,0.00,,,0.00,weatherlink.com 1.10,2013-10-04 01:30:00,
2013-10-03 21:45:00,62.7,61.0,30.07,South,191,0.0,0.0,94,0.00,,,0.00,weatherlink.com 1.10,2013-10-04 01:45:00,
2013-10-03 22:00:00,62.5,61.0,30.07,South,191,0.0,0.0,94,0.00,,,0.00,weatherlink.com 1.10,2013-10-04 02:00:00,
2013-10-03 22:15:00,62.0,61.0,30.07,South,191,0.0,0.0,95,0.00,,,0.00,weatherlink.com 1.10,2013-10-04 02:15:00,
2013-10-03 22:30:00,62.1,61.0,30.07,South,191,0.0,0.0,95,0.00,,,0.00,weatherlink.com 1.10,2013-10-04 02:30:00,
2013-10-03 22:45:00,61.9,61.0,30.08,South,191,0.0,0.0,95,0.00,,,0.00,weatherlink.com 1.10,2013-10-04 02:45:00,
2013-10-03 23:00:00,62.0,61.0,30.07,South,191,0.0,0.0,95,0.00,,,0.00,weatherlink.com 1.10,2013-10-04 03:00:00,
2013-10-03 23:15:00,61.6,60.0,30.07,South,191,0.0,0.0,95,0.00,,,0.00,weatherlink.com 1.10,2013-10-04 03:15:00,
2013-10-03 23:30:00,61.1,60.0,30.08,South,191,0.0,0.0,95,0.00,,,0.00,weatherlink.com 1.10,2013-10-04 03:30:00,
2013-10-03 23:45:00,61.2,60.0,30.08,South,191,0.0,0.0,96,0.00,,,0.00,weatherlink.com 1.10,2013-10-04 03:45:00,